Time;durP1;ratioP1;P1;durP2;ratioP2;P2;SDS_P1;SDS_P2;PMS_P1;PMS_P2;Temp;Humidity;BMP_temperature;BMP_pressure;BME280_temperature;BME280_humidity;BME280_pressure;Samples;Min_cycle;Max_cycle;Signal;HPM_P1;HPM_P2
2021/10/25 00:00:49;;;;;;;5.77;4.93;;;;;;;;;;5056178;28;20414;-67
2021/10/25 00:03:15;;;;;;;8.07;4.13;;;;;;;;;;5065749;28;20406;-66
2021/10/25 00:05:41;;;;;;;5.70;4.47;;;;;;;;;;5054658;28;20453;-66
2021/10/25 00:08:07;;;;;;;5.63;4.70;;;;;;;;;;5054545;28;20959;-66
2021/10/25 00:10:34;;;;;;;6.63;4.30;;;;;;;;;;5054987;28;20950;-66
2021/10/25 00:13:00;;;;;;;5.43;4.40;;;;;;;;;;5054132;28;20903;-66
2021/10/25 00:15:26;;;;;;;7.97;3.97;;;;;;;;;;5054766;28;20897;-66
2021/10/25 00:17:53;;;;;;;4.27;3.83;;;;;;;;;;5036204;28;20745;-67
2021/10/25 00:20:19;;;;;;;4.97;4.23;;;;;;;;;;5054170;28;20862;-67
2021/10/25 00:22:45;;;;;;;9.00;5.10;;;;;;;;;;5054026;28;20404;-66
2021/10/25 00:25:12;;;;;;;5.60;5.00;;;;;;;;;;5036781;28;20444;-67
2021/10/25 00:27:38;;;;;;;6.07;4.90;;;;;;;;;;5054098;28;20398;-66
2021/10/25 00:30:05;;;;;;;6.90;4.23;;;;;;;;;;5053597;28;20441;-66
2021/10/25 00:32:31;;;;;;;7.13;5.00;;;;;;;;;;5059403;28;20441;-67
2021/10/25 00:34:57;;;;;;;5.30;3.90;;;;;;;;;;5073697;28;20396;-67
2021/10/25 00:37:23;;;;;;;4.80;4.30;;;;;;;;;;5073796;28;20410;-66
2021/10/25 00:39:49;;;;;;;7.47;4.70;;;;;;;;;;5073594;28;20424;-66
2021/10/25 00:42:15;;;;;;;6.87;5.00;;;;;;;;;;5073828;28;20907;-65
2021/10/25 00:44:41;;;;;;;8.30;5.73;;;;;;;;;;5073642;28;20451;-65
2021/10/25 00:47:08;;;;;;;7.00;5.57;;;;;;;;;;5073716;28;20507;-67
2021/10/25 00:49:34;;;;;;;7.20;5.83;;;;;;;;;;5073510;28;20909;-67
2021/10/25 00:52:00;;;;;;;7.97;5.63;;;;;;;;;;5073563;28;20455;-67
2021/10/25 00:54:27;;;;;;;7.50;5.70;;;;;;;;;;5073544;28;20412;-67
2021/10/25 00:56:53;;;;;;;8.13;5.70;;;;;;;;;;5073737;28;20467;-67
2021/10/25 00:59:19;;;;;;;6.53;4.93;;;;;;;;;;5073316;28;20405;-67
2021/10/25 01:01:46;;;;;;;7.00;5.50;;;;;;;;;;5071186;28;20412;-67
2021/10/25 01:04:12;;;;;;;6.97;5.80;;;;;;;;;;5053509;28;20453;-65
2021/10/25 01:06:39;;;;;;;7.70;5.40;;;;;;;;;;5069863;28;20454;-65
2021/10/25 01:09:05;;;;;;;11.77;5.20;;;;;;;;;;5073208;28;20432;-66
2021/10/25 01:11:32;;;;;;;7.30;5.23;;;;;;;;;;5073138;28;20413;-66
2021/10/25 01:13:58;;;;;;;8.30;5.00;;;;;;;;;;5073250;28;20396;-66
2021/10/25 01:16:26;;;;;;;8.93;7.23;;;;;;;;;;5073394;28;20431;-67
2021/10/25 01:18:54;;;;;;;9.97;5.77;;;;;;;;;;5073195;28;20411;-65
2021/10/25 01:21:20;;;;;;;6.77;5.43;;;;;;;;;;5073051;28;20413;-67
2021/10/25 01:23:46;;;;;;;7.27;6.10;;;;;;;;;;5073206;28;20543;-66
2021/10/25 01:26:14;;;;;;;6.10;5.20;;;;;;;;;;5073210;28;20761;-66
2021/10/25 01:28:41;;;;;;;6.00;5.03;;;;;;;;;;5073029;28;20476;-66
2021/10/25 01:31:07;;;;;;;7.67;5.70;;;;;;;;;;5073154;28;20440;-66
2021/10/25 01:33:34;;;;;;;7.67;5.40;;;;;;;;;;5072990;28;20774;-66
2021/10/25 01:36:01;;;;;;;6.03;4.90;;;;;;;;;;5073095;28;20399;-66
2021/10/25 01:38:27;;;;;;;6.10;4.87;;;;;;;;;;5073096;28;20476;-66
2021/10/25 01:41:01;;;;;;;8.20;5.50;;;;;;;;;;5073189;28;20464;-66
2021/10/25 01:43:27;;;;;;;7.77;5.23;;;;;;;;;;5051898;28;20555;-67
2021/10/25 01:45:53;;;;;;;7.07;4.80;;;;;;;;;;5052855;28;20402;-66
2021/10/25 01:48:19;;;;;;;7.60;5.23;;;;;;;;;;5055493;28;20902;-66
2021/10/25 01:50:45;;;;;;;7.57;5.00;;;;;;;;;;5057088;28;20414;-66
2021/10/25 01:53:12;;;;;;;7.67;5.60;;;;;;;;;;5056933;28;20393;-66
2021/10/25 01:55:38;;;;;;;8.00;4.87;;;;;;;;;;5056806;28;20408;-66
2021/10/25 01:58:05;;;;;;;10.00;5.10;;;;;;;;;;5057040;28;20402;-66
2021/10/25 02:00:32;;;;;;;9.00;6.27;;;;;;;;;;5056759;28;20841;-66
2021/10/25 02:02:58;;;;;;;5.40;4.60;;;;;;;;;;5039495;28;20768;-66
2021/10/25 02:05:24;;;;;;;7.30;5.33;;;;;;;;;;5056552;28;20785;-66
2021/10/25 02:07:50;;;;;;;8.00;4.90;;;;;;;;;;5056696;28;20390;-66
2021/10/25 02:10:16;;;;;;;6.63;5.10;;;;;;;;;;5056671;28;20425;-66
2021/10/25 02:12:43;;;;;;;7.03;5.30;;;;;;;;;;5056647;28;20390;-66
2021/10/25 02:15:09;;;;;;;8.90;5.10;;;;;;;;;;5038624;28;20751;-66
2021/10/25 02:17:35;;;;;;;7.70;5.17;;;;;;;;;;5056386;28;20398;-66
2021/10/25 02:20:01;;;;;;;9.20;5.20;;;;;;;;;;5056516;28;20837;-66
2021/10/25 02:22:28;;;;;;;8.23;5.07;;;;;;;;;;5056498;28;20488;-66
2021/10/25 02:24:54;;;;;;;7.00;4.70;;;;;;;;;;5056625;28;20495;-66
2021/10/25 02:27:20;;;;;;;7.13;4.53;;;;;;;;;;5056229;28;20417;-66
2021/10/25 02:29:46;;;;;;;6.30;4.43;;;;;;;;;;5056113;28;20490;-67
2021/10/25 02:32:15;;;;;;;7.87;5.03;;;;;;;;;;5056923;28;20420;-67
2021/10/25 02:34:44;;;;;;;7.70;5.47;;;;;;;;;;5056445;28;20405;-66
2021/10/25 02:37:11;;;;;;;9.03;5.90;;;;;;;;;;5055951;28;20997;-66
2021/10/25 02:39:37;;;;;;;6.20;4.50;;;;;;;;;;5055688;28;20793;-66
2021/10/25 02:42:03;;;;;;;6.60;5.13;;;;;;;;;;5055889;28;20402;-66
2021/10/25 02:44:29;;;;;;;5.37;4.73;;;;;;;;;;5055786;28;20850;-67
2021/10/25 02:46:55;;;;;;;7.20;5.53;;;;;;;;;;5055971;28;20417;-66
2021/10/25 02:49:21;;;;;;;10.03;6.03;;;;;;;;;;5055892;28;20412;-66
2021/10/25 02:51:48;;;;;;;6.87;5.30;;;;;;;;;;5055556;28;20398;-66
2021/10/25 02:54:14;;;;;;;5.27;4.43;;;;;;;;;;5055831;28;20406;-66
2021/10/25 02:56:40;;;;;;;10.57;6.07;;;;;;;;;;5055926;28;20438;-66
2021/10/25 02:59:09;;;;;;;8.20;4.70;;;;;;;;;;5054305;28;20421;-66
2021/10/25 03:01:39;;;;;;;9.73;5.40;;;;;;;;;;5055647;28;20409;-66
2021/10/25 03:04:06;;;;;;;6.97;4.87;;;;;;;;;;5055513;28;20448;-66
2021/10/25 03:06:33;;;;;;;6.80;4.00;;;;;;;;;;5055641;28;20489;-66
2021/10/25 03:08:59;;;;;;;6.10;4.07;;;;;;;;;;5055378;28;20394;-66
2021/10/25 03:11:25;;;;;;;5.97;4.30;;;;;;;;;;5055274;28;20417;-66
2021/10/25 03:13:53;;;;;;;16.27;5.90;;;;;;;;;;5059988;28;20433;-66
2021/10/25 03:16:20;;;;;;;10.37;5.07;;;;;;;;;;5073189;28;20412;-66
2021/10/25 03:18:47;;;;;;;8.17;4.73;;;;;;;;;;5075205;28;20398;-66
2021/10/25 03:21:13;;;;;;;7.77;4.37;;;;;;;;;;5075338;28;20420;-66
2021/10/25 03:23:40;;;;;;;7.37;4.40;;;;;;;;;;5075090;28;20396;-66
2021/10/25 03:26:06;;;;;;;6.53;4.37;;;;;;;;;;5075509;28;20408;-66
2021/10/25 03:28:32;;;;;;;5.93;4.03;;;;;;;;;;5075422;28;20421;-66
2021/10/25 03:30:59;;;;;;;8.20;3.60;;;;;;;;;;5075449;28;20445;-66
2021/10/25 03:33:25;;;;;;;4.33;3.40;;;;;;;;;;5061625;28;20903;-66
2021/10/25 03:35:51;;;;;;;5.03;3.27;;;;;;;;;;5054913;28;20405;-66
2021/10/25 03:38:18;;;;;;;3.90;3.27;;;;;;;;;;5054792;28;20493;-66
2021/10/25 03:40:48;;;;;;;4.93;3.70;;;;;;;;;;5054672;28;20963;-66
2021/10/25 03:43:14;;;;;;;4.60;2.90;;;;;;;;;;5054665;28;20862;-66
2021/10/25 03:45:54;;;;;;;4.03;3.20;;;;;;;;;;5054503;28;20548;-67
2021/10/25 03:48:33;;;;;;;2.90;2.60;;;;;;;;;;5054873;28;20465;-66
2021/10/25 03:50:59;;;;;;;4.27;3.23;;;;;;;;;;5054735;28;20424;-66
2021/10/25 03:53:49;;;;;;;5.87;3.40;;;;;;;;;;5054768;28;20769;-66
2021/10/25 03:56:28;;;;;;;4.27;3.10;;;;;;;;;;5053711;28;20997;-65
2021/10/25 03:59:20;;;;;;;7.33;3.97;;;;;;;;;;5054594;28;20421;-65
2021/10/25 04:28:29;;;;;;;4.87;3.17;;;;;;;;;;5053897;28;20406;-65
2021/10/25 04:30:57;;;;;;;7.87;2.90;;;;;;;;;;5053824;28;20488;-65
2021/10/25 04:33:24;;;;;;;5.70;3.47;;;;;;;;;;5053593;28;20405;-67
2021/10/25 04:35:50;;;;;;;9.20;5.63;;;;;;;;;;5054122;28;20420;-66
2021/10/25 04:38:16;;;;;;;5.33;3.97;;;;;;;;;;5052553;28;20983;-67
2021/10/25 04:40:42;;;;;;;11.83;3.63;;;;;;;;;;5053685;28;20516;-68
2021/10/25 04:43:15;;;;;;;6.23;3.87;;;;;;;;;;5053753;28;20532;-67
2021/10/25 04:45:42;;;;;;;5.00;4.13;;;;;;;;;;5053907;28;20574;-66
2021/10/25 04:48:08;;;;;;;12.77;6.27;;;;;;;;;;5053546;28;20406;-67
2021/10/25 04:50:34;;;;;;;5.90;4.03;;;;;;;;;;5053526;28;20420;-69
2021/10/25 04:53:01;;;;;;;12.13;5.07;;;;;;;;;;5053476;28;20916;-67
2021/10/25 04:55:27;;;;;;;9.70;4.23;;;;;;;;;;5053460;28;20496;-67
2021/10/25 04:57:53;;;;;;;7.90;4.30;;;;;;;;;;5067237;28;20470;-66
2021/10/25 05:00:19;;;;;;;6.33;4.17;;;;;;;;;;5073039;28;20442;-66
2021/10/25 05:02:45;;;;;;;4.57;4.17;;;;;;;;;;5073288;28;20405;-66
2021/10/25 05:05:11;;;;;;;6.23;4.37;;;;;;;;;;5073475;28;20453;-66
2021/10/25 05:07:37;;;;;;;10.90;4.97;;;;;;;;;;5073502;28;20399;-66
2021/10/25 05:10:04;;;;;;;5.90;4.07;;;;;;;;;;5072979;28;20929;-65
2021/10/25 05:12:31;;;;;;;9.80;5.00;;;;;;;;;;5073215;28;20925;-66
2021/10/25 05:14:57;;;;;;;8.47;4.70;;;;;;;;;;5073208;28;20405;-65
2021/10/25 05:17:23;;;;;;;10.97;8.10;;;;;;;;;;5073120;28;20478;-66
2021/10/25 05:19:49;;;;;;;7.60;4.63;;;;;;;;;;5073099;28;20448;-66
2021/10/25 05:22:16;;;;;;;6.23;4.07;;;;;;;;;;5072684;28;20429;-65
2021/10/25 05:24:43;;;;;;;8.53;4.70;;;;;;;;;;5073251;28;20456;-65
2021/10/25 05:27:11;;;;;;;6.20;4.27;;;;;;;;;;5073281;28;20397;-65
2021/10/25 05:29:37;;;;;;;7.07;3.70;;;;;;;;;;5072889;28;20443;-66
2021/10/25 05:32:03;;;;;;;6.10;4.40;;;;;;;;;;5066690;28;20421;-65
2021/10/25 05:34:31;;;;;;;7.97;4.80;;;;;;;;;;5053074;28;20406;-66
2021/10/25 05:36:57;;;;;;;5.47;3.50;;;;;;;;;;5053292;28;20410;-66
2021/10/25 05:39:23;;;;;;;6.50;4.50;;;;;;;;;;5053100;28;20437;-66
2021/10/25 05:41:49;;;;;;;5.97;4.30;;;;;;;;;;5053047;28;20414;-65
2021/10/25 05:44:16;;;;;;;6.57;4.00;;;;;;;;;;5052948;28;20970;-66
2021/10/25 05:46:42;;;;;;;5.43;3.93;;;;;;;;;;5052706;28;20492;-65
2021/10/25 05:49:08;;;;;;;9.57;5.30;;;;;;;;;;5052556;28;20398;-65
2021/10/25 05:51:35;;;;;;;6.77;4.53;;;;;;;;;;5053102;28;20525;-66
2021/10/25 05:54:04;;;;;;;6.53;5.40;;;;;;;;;;5053175;28;20420;-66
2021/10/25 05:56:31;;;;;;;7.40;5.17;;;;;;;;;;5052815;28;20438;-66
2021/10/25 05:58:57;;;;;;;8.23;5.17;;;;;;;;;;5052554;28;20410;-66
2021/10/25 06:01:42;;;;;;;13.03;4.30;;;;;;;;;;5060341;28;20456;-65
2021/10/25 06:04:10;;;;;;;9.00;4.33;;;;;;;;;;5072836;28;20519;-65
2021/10/25 06:06:36;;;;;;;7.77;4.60;;;;;;;;;;5072988;28;20393;-65
2021/10/25 06:09:04;;;;;;;8.00;4.60;;;;;;;;;;5073062;28;20476;-66
2021/10/25 06:11:31;;;;;;;6.50;5.20;;;;;;;;;;5072730;28;20517;-65
2021/10/25 06:14:01;;;;;;;7.20;4.83;;;;;;;;;;5072932;28;20412;-67
2021/10/25 06:16:39;;;;;;;8.57;4.70;;;;;;;;;;5072748;28;20397;-66
2021/10/25 06:19:06;;;;;;;8.07;5.70;;;;;;;;;;5072896;28;20388;-67
2021/10/25 06:21:33;;;;;;;6.73;4.57;;;;;;;;;;5072751;28;20417;-66
2021/10/25 06:24:00;;;;;;;10.40;4.23;;;;;;;;;;5072608;28;20456;-67
2021/10/25 06:26:27;;;;;;;9.20;4.53;;;;;;;;;;5054534;28;20413;-66
2021/10/25 06:28:53;;;;;;;8.77;3.90;;;;;;;;;;5071923;28;20885;-64
2021/10/25 06:31:20;;;;;;;11.40;4.63;;;;;;;;;;5066362;28;20448;-64
2021/10/25 06:33:47;;;;;;;9.53;3.80;;;;;;;;;;5072452;28;20413;-64
2021/10/25 06:36:13;;;;;;;6.43;4.17;;;;;;;;;;5076365;28;20396;-65
2021/10/25 06:38:51;;;;;;;4.93;3.37;;;;;;;;;;5075540;28;20412;-64
2021/10/25 06:41:18;;;;;;;6.47;3.30;;;;;;;;;;5075052;28;20791;-65
2021/10/25 06:43:44;;;;;;;5.93;3.70;;;;;;;;;;5075605;28;20415;-65
2021/10/25 06:46:11;;;;;;;8.07;3.50;;;;;;;;;;5075582;28;20449;-65
2021/10/25 06:48:37;;;;;;;8.17;3.40;;;;;;;;;;5075604;28;20421;-65
2021/10/25 06:51:03;;;;;;;5.87;4.23;;;;;;;;;;5075730;28;20507;-65
2021/10/25 06:53:29;;;;;;;6.20;3.70;;;;;;;;;;5075468;28;20404;-67
2021/10/25 06:55:55;;;;;;;5.13;3.87;;;;;;;;;;5062757;28;20417;-65
2021/10/25 06:58:22;;;;;;;7.90;3.30;;;;;;;;;;5066094;28;20918;-65
2021/10/25 07:00:48;;;;;;;7.17;3.70;;;;;;;;;;5066869;28;20473;-65
2021/10/25 07:03:15;;;;;;;7.73;2.77;;;;;;;;;;5063717;28;20416;-66
2021/10/25 07:05:41;;;;;;;5.23;3.13;;;;;;;;;;5060466;28;20488;-66
2021/10/25 07:08:08;;;;;;;5.10;3.30;;;;;;;;;;5069590;28;20416;-65
2021/10/25 07:10:36;;;;;;;4.90;2.90;;;;;;;;;;5073151;28;20798;-66
2021/10/25 07:13:02;;;;;;;6.00;4.20;;;;;;;;;;5073160;28;20747;-65
2021/10/25 07:15:30;;;;;;;6.23;4.00;;;;;;;;;;5070215;28;20424;-66
2021/10/25 08:07:10;;;;;;;10.00;3.93;;;;;;;;;;5066288;28;20392;-70
2021/10/25 08:09:47;;;;;;;9.83;3.77;;;;;;;;;;5064680;28;20813;-68
2021/10/25 08:12:16;;;;;;;7.07;4.13;;;;;;;;;;5064748;28;20474;-68
2021/10/25 08:14:49;;;;;;;8.13;3.97;;;;;;;;;;5067273;28;20438;-68
2021/10/25 08:17:19;;;;;;;6.73;4.30;;;;;;;;;;5060981;28;20910;-71
2021/10/25 08:19:46;;;;;;;11.80;4.97;;;;;;;;;;5069376;28;20442;-66
2021/10/25 08:22:15;;;;;;;9.10;5.23;;;;;;;;;;5064394;28;20421;-68
2021/10/25 08:24:43;;;;;;;11.97;5.07;;;;;;;;;;5066139;28;20462;-64
2021/10/25 08:27:09;;;;;;;10.10;4.60;;;;;;;;;;5072749;28;20417;-63
2021/10/25 08:29:36;;;;;;;9.17;4.67;;;;;;;;;;5065933;28;20448;-66
2021/10/25 08:34:55;;;;;;;15.03;8.17;;;;;;;;;;5060756;28;20413;-65
2021/10/25 08:39:58;;;;;;;8.00;4.20;;;;;;;;;;5069075;28;20441;-66
2021/10/25 08:42:32;;;;;;;13.30;5.00;;;;;;;;;;5051547;28;20416;-65
2021/10/25 08:45:05;;;;;;;8.40;5.67;;;;;;;;;;5064396;28;20453;-65
2021/10/25 08:47:36;;;;;;;11.60;5.80;;;;;;;;;;5065379;28;20457;-66
2021/10/25 08:50:05;;;;;;;11.15;4.85;;;;;;;;;;5064524;28;20485;-70
2021/10/25 08:52:31;;;;;;;9.57;4.70;;;;;;;;;;5062173;28;20174;-66
2021/10/25 08:55:00;;;;;;;11.00;5.50;;;;;;;;;;5071129;28;20411;-65
2021/10/25 08:57:26;;;;;;;10.50;5.70;;;14.70;99.90;;;;;;5063966;28;20442;-67
2021/10/25 08:59:57;;;;;;;12.03;5.47;;;;;;;;;;5059999;28;20449;-69
2021/10/25 09:02:24;;;;;;;11.27;5.15;;;;;;;;;;5062900;28;20438;-71
2021/10/25 09:05:05;;;;;;;17.67;6.53;;;;;;;;;;5064910;28;20198;-65
2021/10/25 09:07:31;;;;;;;11.90;4.93;;;;;;;;;;5069886;28;20405;-70
2021/10/25 09:09:58;;;;;;;9.03;5.37;;;;;;;;;;5070066;28;20435;-68
2021/10/25 09:12:24;;;;;;;9.90;5.50;;;;;;;;;;5067698;28;20432;-69
2021/10/25 09:14:57;;;;;;;7.93;5.07;;;;;;;;;;5064133;28;20421;-66
2021/10/25 09:17:23;;;;;;;11.20;5.20;;;;;;;;;;5064601;28;20752;-67
2021/10/25 09:19:49;;;;;;;24.90;6.60;;;;;;;;;;5063466;28;20464;-68
2021/10/25 09:22:17;;;;;;;7.20;5.27;;;;;;;;;;5068060;28;20424;-69
2021/10/25 09:24:56;;;;;;;8.20;5.70;;;;;;;;;;5069607;28;20804;-67
2021/10/25 09:27:41;;;;;;;10.40;5.60;;;;;;;;;;5062720;28;20511;-67
2021/10/25 09:30:07;;;;;;;7.60;5.10;;;;;;;;;;5067939;28;20271;-67
2021/10/25 09:32:34;;;;;;;11.50;5.53;;;;;;;;;;5065213;28;20507;-70
2021/10/25 09:35:03;;;;;;;10.13;5.27;;;;;;;;;;5066745;28;20409;-66
2021/10/25 09:37:36;;;;;;;15.27;5.30;;;;;;;;;;5066699;28;20903;-67
2021/10/25 09:40:08;;;;;;;9.60;5.90;;;;;;;;;;5066110;28;20720;-65
2021/10/25 09:50:53;;;;;;;7.63;4.47;;;;;;;;;;5070126;28;20247;-67
2021/10/25 09:53:48;;;;;;;10.00;4.90;;;;;;;;;;5071184;28;20813;-66
2021/10/25 09:56:16;;;;;;;7.10;4.60;;;;;;;;;;5058614;28;20412;-68
2021/10/25 09:58:53;;;;;;;9.47;4.57;;;;;;;;;;5070076;28;20414;-72
2021/10/25 10:01:25;;;;;;;9.70;5.07;;;;;;;;;;5070114;28;20436;-68
2021/10/25 10:03:52;;;;;;;7.70;4.30;;;;;;;;;;5070905;28;20450;-67
2021/10/25 10:06:18;;;;;;;7.87;4.90;;;;;;;;;;5057156;28;20508;-68
2021/10/25 10:08:45;;;;;;;7.80;4.87;;;;;;;;;;5062372;28;20893;-69
2021/10/25 10:11:12;;;;;;;11.00;5.30;;;;;;;;;;5067895;28;20432;-69
2021/10/25 10:13:39;;;;;;;10.53;4.17;;;;;;;;;;5068782;28;20408;-68
2021/10/25 10:16:06;;;;;;;11.13;5.00;;;;;;;;;;5073147;28;20424;-68
2021/10/25 10:18:33;;;;;;;10.67;4.90;;;;;;;;;;5068931;28;20440;-69
2021/10/25 10:21:01;;;;;;;8.37;5.20;;;;;;;;;;5066393;28;20440;-68
2021/10/25 10:23:27;;;;;;;7.60;4.93;;;;;;;;;;5065920;28;20782;-69
2021/10/25 10:25:54;;;;;;;9.07;4.90;;;;;;;;;;5064578;28;20452;-69
2021/10/25 10:28:31;;;;;;;10.90;5.30;;;;;;;;;;5069093;28;20412;-70
2021/10/25 10:31:03;;;;;;;6.93;3.93;;;;;;;;;;5068022;28;20443;-69
2021/10/25 10:33:34;;;;;;;9.13;4.70;;;;;;;;;;5065990;28;20497;-69
2021/10/25 10:36:12;;;;;;;8.83;4.70;;;;;;;;;;5069595;28;20417;-69
2021/10/25 10:38:46;;;;;;;6.37;4.63;;;;;;;;;;5068565;28;20520;-68
2021/10/25 10:41:13;;;;;;;8.30;5.27;;;;;;;;;;5059134;28;20451;-69
2021/10/25 10:43:39;;;;;;;7.10;4.80;;;;;;;;;;5065679;28;20432;-68
2021/10/25 10:46:10;;;;;;;8.00;5.57;;;;;;;;;;5061852;28;21007;-71
2021/10/25 10:48:38;;;;;;;20.60;6.33;;;;;;;;;;5064776;28;20436;-69
2021/10/25 10:51:11;;;;;;;17.53;5.27;;;;;;;;;;5064419;28;20478;-65
2021/10/25 10:53:43;;;;;;;14.00;5.80;;;;;;;;;;5066656;28;20417;-66
2021/10/25 10:56:29;;;;;;;13.80;5.43;;;;;;;;;;5067895;28;20505;-66
2021/10/25 11:01:30;;;;;;;13.57;5.23;;;;;;;;;;5064563;28;20429;-66
2021/10/25 11:04:00;;;;;;;9.77;6.83;;;;;;;;;;5065354;28;20413;-68
2021/10/25 11:06:34;;;;;;;8.67;5.53;;;;;;;;;;5065837;28;20543;-66
2021/10/25 11:09:07;;;;;;;9.83;5.60;;;;;;;;;;5066780;28;20735;-67
2021/10/25 11:11:36;;;;;;;7.80;5.13;;;;;;;;;;5065782;28;20429;-67
2021/10/25 11:14:04;;;;;;;12.47;5.73;;;;;;;;;;5065985;28;20406;-64
2021/10/25 11:19:02;;;;;;;9.63;5.60;;;;;;;;;;5065303;28;20510;-67
2021/10/25 11:21:30;;;;;;;15.07;6.10;;;;;;;;;;5063899;28;20435;-67
2021/10/25 11:23:59;;;;;;;6.90;5.00;;;;;;;;;;5068478;28;20438;-68
2021/10/25 11:26:52;;;;;;;10.90;5.60;;;;;;;;;;5065479;28;20408;-67
2021/10/25 11:29:20;;;;;;;14.07;6.30;;;;;;;;;;5060856;28;20436;-67
2021/10/25 11:31:51;;;;;;;5.77;4.80;;;;;;;;;;5065575;28;20419;-66
2021/10/25 11:34:54;;;;;;;12.93;5.93;;;;;;;;;;5064865;28;20917;-67
2021/10/25 11:37:22;;;;;;;8.70;6.63;;;;;;;;;;5056936;28;20793;-68
2021/10/25 11:42:22;;;;;;;10.27;5.20;;;;;;;;;;5064784;28;20404;-69
2021/10/25 11:44:53;;;;;;;8.57;5.30;;;;;;;;;;5058699;28;20456;-69
2021/10/25 11:47:20;;;;;;;11.07;5.60;;;;;;;;;;5062111;28;20807;-66
2021/10/25 11:49:46;;;;;;;5.47;4.37;;;;;;;;;;5065178;28;20422;-67
2021/10/25 11:52:12;;;;;;;7.47;6.13;;;;;;;;;;5065584;28;20416;-68
2021/10/25 11:54:48;;;;;;;7.17;5.13;;;;;;;;;;5063722;28;20417;-67
2021/10/25 11:57:15;;;;;;;8.00;5.60;;;;;;;;;;5069597;28;20427;-66
2021/10/25 11:59:41;;;;;;;6.97;4.90;;;;;;;;;;5063995;28;20775;-68
2021/10/25 12:02:11;;;;;;;8.07;5.33;;;;;;;;;;5070951;28;20412;-67
2021/10/25 12:04:44;;;;;;;9.17;4.57;;;;;;;;;;5061043;28;20817;-68
2021/10/25 12:07:11;;;;;;;9.70;4.70;;;;;;;;;;5048372;28;21004;-66
2021/10/25 12:09:37;;;;;;;11.30;4.60;;;;;;;;;;5071746;28;20515;-68
2021/10/25 12:12:14;;;;;;;7.40;4.63;;;;;;;;;;5065767;28;20406;-67
2021/10/25 12:14:43;;;;;;;7.50;5.23;;;;;;;;;;5061443;28;20927;-69
2021/10/25 12:17:14;;;;;;;10.03;5.03;;;;;;;;;;5071128;28;20420;-67
2021/10/25 12:19:42;;;;;;;6.10;4.47;;;;;;;;;;5072866;28;20515;-67
2021/10/25 12:22:09;;;;;;;7.07;5.43;;;;;;;;;;5071901;28;20866;-65
2021/10/25 12:24:37;;;;;;;6.53;4.77;;;;;;;;;;5068917;28;20482;-65
2021/10/25 12:27:05;;;;;;;7.13;5.20;;;;;;;;;;5068873;28;20798;-65
2021/10/25 12:29:31;;;;;;;10.97;4.90;;;;;;;;;;5072353;28;20455;-65
2021/10/25 12:32:07;;;;;;;10.37;4.67;;;;;;;;;;5071085;28;20483;-65
2021/10/25 12:34:33;;;;;;;8.33;5.33;;;;;;;;;;5069664;28;20452;-67
2021/10/25 12:36:59;;;;;;;8.27;4.70;;;;;;;;;;5050683;28;20501;-67
2021/10/25 12:39:25;;;;;;;5.20;4.10;;;;;;;;;;5071353;28;20445;-66
2021/10/25 12:41:52;;;;;;;8.47;4.30;;;;;;;;;;5071057;28;20424;-66
2021/10/25 12:44:23;;;;;;;8.23;5.80;;;;;;;;;;5065559;28;20549;-67
2021/10/25 12:46:51;;;;;;;7.93;4.90;;;;;;;;;;5071057;28;20412;-68
2021/10/25 12:49:20;;;;;;;10.00;7.37;;;;;;;;;;5068187;28;20504;-67
2021/10/25 12:51:46;;;;;;;7.30;4.90;;;;;;;;;;5071981;28;20405;-66
2021/10/25 12:54:13;;;;;;;10.53;5.30;;;;;;;;;;5070315;28;20466;-68
2021/10/25 12:56:40;;;;;;;8.67;4.87;;;;;;;;;;5067505;28;20763;-66
2021/10/25 12:59:13;;;;;;;9.77;6.33;;;;;;;;;;5068406;28;20482;-65
2021/10/25 13:01:50;;;;;;;8.73;6.23;;;;;;;;;;5071365;28;20466;-66
2021/10/25 13:04:19;;;;;;;14.53;8.67;;;;;;;;;;5067030;28;20444;-66
2021/10/25 13:06:46;;;;;;;12.63;7.53;;;;;;;;;;5069316;28;20513;-65
2021/10/25 13:09:12;;;;;;;9.70;6.37;;;;;;;;;;5064391;28;20926;-66
2021/10/25 13:11:38;;;;;;;10.27;6.30;;;;;;;;;;5066347;28;20413;-64
2021/10/25 13:14:07;;;;;;;8.43;6.40;;;;;;;;;;5064171;28;20501;-66
2021/10/25 13:19:05;;;;;;;11.07;7.60;;;;;;;;;;5070212;28;20404;-65
2021/10/25 13:21:31;;;;;;;10.93;6.57;;;;;;;;;;5064988;28;20811;-66
2021/10/25 13:23:57;;;;;;;9.03;6.33;;;;;;;;;;5064533;28;20774;-65
2021/10/25 13:26:26;;;;;;;10.37;5.97;;;;;;;;;;5067876;28;20511;-66
2021/10/25 13:28:52;;;;;;;16.17;6.73;;;;;;;;;;5065690;28;20416;-68
2021/10/25 13:31:18;;;;;;;16.97;8.80;;;;;;;;;;5069089;28;20447;-67
2021/10/25 13:33:45;;;;;;;13.80;10.60;;;;;;;;;;5059891;28;20758;-66
2021/10/25 13:36:11;;;;;;;11.47;9.40;;;;;;;;;;5062447;28;20426;-67
2021/10/25 13:38:37;;;;;;;11.23;8.27;;;;;;;;;;5065868;28;20926;-67
2021/10/25 13:41:03;;;;;;;14.20;9.50;;;;;;;;;;5071336;28;20441;-66
2021/10/25 13:43:29;;;;;;;13.63;9.57;;;;;;;;;;5067316;28;20445;-66
2021/10/25 13:45:55;;;;;;;15.10;9.93;;;;;;;;;;5077578;28;20486;-65
2021/10/25 13:48:21;;;;;;;15.10;9.27;;;;;;;;;;5073310;28;20412;-67
2021/10/25 13:50:47;;;;;;;16.27;10.43;;;;;;;;;;5072666;28;20424;-66
2021/10/25 13:53:13;;;;;;;17.77;10.60;;;;;;;;;;5072378;28;20499;-65
2021/10/25 13:55:40;;;;;;;11.90;9.50;;;;;;;;;;5069723;28;20420;-65
2021/10/25 13:58:06;;;;;;;17.67;9.40;;;;;;;;;;5071280;28;20420;-66
2021/10/25 14:00:32;;;;;;;14.83;9.33;;;;;;;;;;5071918;28;20479;-65
2021/10/25 14:03:00;;;;;;;16.90;9.20;;;;;;;;;;5071984;28;20832;-65
2021/10/25 14:05:26;;;;;;;12.50;8.27;;;;;;;;;;5068465;28;20448;-66
2021/10/25 14:07:52;;;;;;;22.73;9.70;;;;;;;;;;5069067;28;20421;-67
2021/10/25 14:12:46;;;;;;;9.90;8.23;;;;;;;;;;5070144;28;20410;-66
2021/10/25 14:17:42;;;;;;;13.13;8.63;;;;;;;;;;5068882;28;20404;-67
2021/10/25 14:20:09;;;;;;;10.97;7.70;;;;;;;;;;5069589;28;20493;-68
2021/10/25 14:22:35;;;;;;;11.63;8.60;;;;;;;;;;5074313;28;20408;-69
2021/10/25 14:25:01;;;;;;;12.63;8.77;;;;;;;;;;5069977;28;20501;-70
2021/10/25 14:27:28;;;;;;;12.73;8.07;;;;;;;;;;5069447;28;20421;-69
2021/10/25 14:29:54;;;;;;;11.30;9.00;;;;;;;;;;5070727;28;20674;-70
2021/10/25 14:32:20;;;;;;;13.67;10.20;;;;;;;;;;5066292;28;20568;-69
2021/10/25 14:34:46;;;;;;;15.68;8.85;;;;;;;;;;5074425;28;20425;-65
2021/10/25 14:37:13;;;;;;;12.30;7.53;;;;;;;;;;5075044;28;20190;-65
2021/10/25 14:39:47;;;;;;;10.30;7.60;;;;;;;;;;5074703;28;20486;-66
2021/10/25 14:42:27;;;;;;;9.57;7.67;;;;;;;;;;5069126;28;20550;-66
2021/10/25 14:45:08;;;;;;;14.23;8.20;;;;;;;;;;5069149;28;20602;-66
2021/10/25 14:55:57;;;;;;;16.10;8.40;;;;;;;;;;5074427;28;20424;-66
2021/10/25 14:58:24;;;;;;;17.03;11.57;;;;;;;;;;5074178;28;20420;-66
2021/10/25 15:00:50;;;;;;;15.73;10.20;;;;;;;;;;5070089;28;20467;-66
2021/10/25 15:03:16;;;;;;;15.60;8.77;;;;;;;;;;5072595;28;20490;-65
2021/10/25 15:05:42;;;;;;;16.60;9.30;;;;;;;;;;5070275;28;20459;-67
2021/10/25 15:08:09;;;;;;;11.90;8.37;;;;;;;;;;5066149;28;20418;-65
2021/10/25 15:10:35;;;;;;;11.70;7.70;;;;;;;;;;5066656;28;20794;-66
2021/10/25 15:13:02;;;;;;;11.90;8.63;;;;;;;;;;5070578;28;20503;-66
2021/10/25 15:15:28;;;;;;;12.47;8.90;;;;;;;;;;5071869;28;21009;-67
2021/10/25 15:17:56;;;;;;;11.73;8.33;;;;;;;;;;5067849;28;20408;-66
2021/10/25 15:20:23;;;;;;;13.50;8.23;;;;;;;;;;5069947;28;20440;-68
2021/10/25 15:22:49;;;;;;;13.23;8.90;;;;;;;;;;5070098;28;20417;-67
2021/10/25 15:25:18;;;;;;;12.67;9.70;;;;;;;;;;5072935;28;20466;-69
2021/10/25 15:27:44;;;;;;;22.53;13.67;;;;;;;;;;5052609;28;20431;-65
2021/10/25 15:30:11;;;;;;;12.37;9.10;;;;;;;;;;5069187;28;20468;-65
2021/10/25 15:32:37;;;;;;;11.33;10.10;;;;;;;;;;5071097;28;20897;-65
2021/10/25 15:35:04;;;;;;;12.17;9.37;;;;;;;;;;5065067;28;20420;-65
2021/10/25 15:37:30;;;;;;;14.23;9.53;;;;;;;;;;5073201;28;20421;-65
2021/10/25 15:39:59;;;;;;;14.30;9.53;;;;;;;;;;5069419;28;20857;-65
2021/10/25 15:42:26;;;;;;;13.30;9.70;;;;;;;;;;5073728;28;20413;-65
2021/10/25 15:44:52;;;;;;;17.83;10.57;;;;;;;;;;5073630;28;20456;-64
2021/10/25 15:47:20;;;;;;;14.70;9.47;;;;;;;;;;5068929;28;20420;-65
2021/10/25 15:49:47;;;;;;;20.13;10.20;;;;;;;;;;5072331;28;20428;-65
2021/10/25 15:52:14;;;;;;;13.77;9.50;;;;;;;;;;5070305;28;20425;-65
2021/10/25 15:54:40;;;;;;;15.07;10.87;;;;;;;;;;5072757;28;20425;-64
2021/10/25 15:57:07;;;;;;;12.60;9.93;;;;;;;;;;5071497;28;20428;-65
2021/10/25 15:59:33;;;;;;;19.07;10.30;;;;;;;;;;5071599;28;20581;-63
2021/10/25 16:01:59;;;;;;;17.10;11.53;;;;;;;;;;5073156;28;20421;-65
2021/10/25 16:04:26;;;;;;;15.07;10.73;;;;;;;;;;5064628;28;20517;-65
2021/10/25 16:06:52;;;;;;;18.83;10.70;;;;;;;;;;5070374;28;20425;-66
2021/10/25 16:09:19;;;;;;;17.40;10.97;;;;;;;;;;5068556;28;20490;-65
2021/10/25 16:11:45;;;;;;;13.53;10.00;;;;;;;;;;5071013;28;20417;-65
2021/10/25 16:14:12;;;;;;;14.10;10.60;;;;;;;;;;5071675;28;20409;-65
2021/10/25 16:16:38;;;;;;;20.13;12.57;;;;;;;;;;5071799;28;21000;-65
2021/10/25 16:19:04;;;;;;;16.33;9.77;;;;;;;;;;5071822;28;20917;-64
2021/10/25 16:21:32;;;;;;;15.00;10.90;;;;;;;;;;5068093;28;20482;-65
2021/10/25 16:23:58;;;;;;;11.50;10.17;;;;;;;;;;5071600;28;20413;-65
2021/10/25 16:26:24;;;;;;;14.80;10.77;;;;;;;;;;5067784;28;20425;-65
2021/10/25 16:28:51;;;;;;;19.30;12.37;;;;;;;;;;5074604;28;20811;-66
2021/10/25 16:31:17;;;;;;;17.33;11.27;;;;;;;;;;5073170;28;20448;-65
2021/10/25 16:33:43;;;;;;;18.00;13.33;;;;;;;;;;5073424;28;20417;-66